sensor_id;sensor_type;location;lat;lon;timestamp;pressure;altitude;pressure_sealevel;temperature;humidity
65800;BME280;52544;48.116;11.660;2023-04-27T00:02:07;95673.59;;;5.51;100.00
65800;BME280;52544;48.116;11.660;2023-04-27T00:04:33;95676.72;;;5.43;100.00
65800;BME280;52544;48.116;11.660;2023-04-27T00:06:58;95672.53;;;5.41;100.00
65800;BME280;52544;48.116;11.660;2023-04-27T00:09:23;95672.41;;;5.42;100.00
65800;BME280;52544;48.116;11.660;2023-04-27T00:11:49;95670.84;;;5.40;100.00
65800;BME280;52544;48.116;11.660;2023-04-27T00:14:14;95661.84;;;5.30;100.00
65800;BME280;52544;48.116;11.660;2023-04-27T00:16:40;95665.81;;;5.22;100.00
65800;BME280;52544;48.116;11.660;2023-04-27T00:19:05;95662.63;;;5.17;100.00
65800;BME280;52544;48.116;11.660;2023-04-27T00:21:33;95667.50;;;5.23;100.00
65800;BME280;52544;48.116;11.660;2023-04-27T00:23:58;95662.41;;;5.35;100.00
65800;BME280;52544;48.116;11.660;2023-04-27T00:26:24;95666.81;;;5.34;100.00
65800;BME280;52544;48.116;11.660;2023-04-27T00:28:51;95661.25;;;5.39;100.00
65800;BME280;52544;48.116;11.660;2023-04-27T00:31:16;95658.91;;;5.48;100.00
65800;BME280;52544;48.116;11.660;2023-04-27T00:33:42;95653.91;;;5.58;100.00
65800;BME280;52544;48.116;11.660;2023-04-27T00:36:07;95659.69;;;5.63;100.00
65800;BME280;52544;48.116;11.660;2023-04-27T00:38:33;95660.22;;;5.68;100.00
65800;BME280;52544;48.116;11.660;2023-04-27T00:41:02;95655.59;;;5.59;100.00
65800;BME280;52544;48.116;11.660;2023-04-27T00:43:28;95651.88;;;5.49;100.00
65800;BME280;52544;48.116;11.660;2023-04-27T00:45:53;95647.41;;;5.37;100.00
65800;BME280;52544;48.116;11.660;2023-04-27T00:48:19;95651.72;;;5.38;100.00
65800;BME280;52544;48.116;11.660;2023-04-27T00:50:44;95649.09;;;5.38;100.00
65800;BME280;52544;48.116;11.660;2023-04-27T00:53:10;95652.81;;;5.48;100.00
65800;BME280;52544;48.116;11.660;2023-04-27T00:55:36;95653.44;;;5.51;100.00
65800;BME280;52544;48.116;11.660;2023-04-27T00:58:01;95645.50;;;5.53;100.00
65800;BME280;52544;48.116;11.660;2023-04-27T01:00:26;95647.16;;;5.54;100.00
65800;BME280;52544;48.116;11.660;2023-04-27T01:02:52;95649.59;;;5.57;100.00
65800;BME280;52544;48.116;11.660;2023-04-27T01:05:19;95652.81;;;5.48;100.00
65800;BME280;52544;48.116;11.660;2023-04-27T01:07:44;95652.06;;;5.46;100.00
65800;BME280;52544;48.116;11.660;2023-04-27T01:10:10;95650.94;;;5.50;100.00
65800;BME280;52544;48.116;11.660;2023-04-27T01:12:35;95656.19;;;5.50;100.00
65800;BME280;52544;48.116;11.660;2023-04-27T01:15:01;95657.84;;;5.51;100.00
65800;BME280;52544;48.116;11.660;2023-04-27T01:17:27;95655.88;;;5.55;100.00
65800;BME280;52544;48.116;11.660;2023-04-27T01:19:52;95657.97;;;5.49;100.00
65800;BME280;52544;48.116;11.660;2023-04-27T01:22:20;95659.94;;;5.46;100.00
65800;BME280;52544;48.116;11.660;2023-04-27T01:24:46;95658.63;;;5.39;100.00
65800;BME280;52544;48.116;11.660;2023-04-27T01:27:11;95662.69;;;5.44;100.00
65800;BME280;52544;48.116;11.660;2023-04-27T01:29:38;95653.38;;;5.39;100.00
65800;BME280;52544;48.116;11.660;2023-04-27T01:32:03;95651.91;;;5.35;100.00
65800;BME280;52544;48.116;11.660;2023-04-27T01:34:29;95661.56;;;5.34;100.00
65800;BME280;52544;48.116;11.660;2023-04-27T01:36:54;95657.44;;;5.44;100.00
65800;BME280;52544;48.116;11.660;2023-04-27T01:39:20;95658.81;;;5.50;100.00
65800;BME280;52544;48.116;11.660;2023-04-27T01:41:45;95652.59;;;5.51;100.00
65800;BME280;52544;48.116;11.660;2023-04-27T01:44:11;95654.50;;;5.49;100.00
65800;BME280;52544;48.116;11.660;2023-04-27T01:46:36;95654.88;;;5.43;100.00
65800;BME280;52544;48.116;11.660;2023-04-27T01:49:01;95658.81;;;5.50;100.00
65800;BME280;52544;48.116;11.660;2023-04-27T01:51:27;95655.69;;;5.58;100.00
65800;BME280;52544;48.116;11.660;2023-04-27T01:53:52;95661.59;;;5.61;100.00
65800;BME280;52544;48.116;11.660;2023-04-27T01:56:17;95663.75;;;5.55;100.00
65800;BME280;52544;48.116;11.660;2023-04-27T01:58:43;95668.16;;;5.54;100.00
65800;BME280;52544;48.116;11.660;2023-04-27T02:01:08;95667.34;;;5.54;100.00
65800;BME280;52544;48.116;11.660;2023-04-27T02:03:34;95670.25;;;5.49;100.00
65800;BME280;52544;48.116;11.660;2023-04-27T02:05:59;95670.63;;;5.43;100.00
65800;BME280;52544;48.116;11.660;2023-04-27T02:08:25;95681.97;;;5.43;100.00
65800;BME280;52544;48.116;11.660;2023-04-27T02:10:50;95676.09;;;5.40;100.00
65800;BME280;52544;48.116;11.660;2023-04-27T02:13:16;95676.09;;;5.40;100.00
65800;BME280;52544;48.116;11.660;2023-04-27T02:15:41;95676.47;;;5.34;100.00
65800;BME280;52544;48.116;11.660;2023-04-27T02:18:07;95676.66;;;5.31;100.00
65800;BME280;52544;48.116;11.660;2023-04-27T02:20:33;95670.38;;;5.33;100.00
65800;BME280;52544;48.116;11.660;2023-04-27T02:22:58;95675.72;;;5.32;100.00
65800;BME280;52544;48.116;11.660;2023-04-27T02:25:25;95681.72;;;5.34;100.00
65800;BME280;52544;48.116;11.660;2023-04-27T02:27:50;95675.56;;;5.20;100.00
65800;BME280;52544;48.116;11.660;2023-04-27T02:30:16;95686.53;;;5.13;100.00
65800;BME280;52544;48.116;11.660;2023-04-27T02:32:41;95684.94;;;5.10;100.00
65800;BME280;52544;48.116;11.660;2023-04-27T02:35:08;95683.25;;;4.95;100.00
65800;BME280;52544;48.116;11.660;2023-04-27T02:37:33;95688.78;;;4.90;100.00
65800;BME280;52544;48.116;11.660;2023-04-27T02:39:59;95686.34;;;4.87;100.00
65800;BME280;52544;48.116;11.660;2023-04-27T02:42:25;95686.28;;;4.89;100.00
65800;BME280;52544;48.116;11.660;2023-04-27T02:44:50;95689.16;;;4.84;100.00
65800;BME280;52544;48.116;11.660;2023-04-27T02:47:16;95687.19;;;4.73;100.00
65800;BME280;52544;48.116;11.660;2023-04-27T02:49:42;95699.94;;;4.65;100.00
65800;BME280;52544;48.116;11.660;2023-04-27T02:52:07;95693.56;;;4.69;100.00
65800;BME280;52544;48.116;11.660;2023-04-27T02:54:33;95691.31;;;4.63;100.00
65800;BME280;52544;48.116;11.660;2023-04-27T02:56:59;95686.31;;;4.44;100.00
65800;BME280;52544;48.116;11.660;2023-04-27T02:59:24;95690.56;;;4.47;100.00
65800;BME280;52544;48.116;11.660;2023-04-27T03:01:50;95689.44;;;4.51;100.00
65800;BME280;52544;48.116;11.660;2023-04-27T03:04:15;95695.03;;;4.45;100.00
65800;BME280;52544;48.116;11.660;2023-04-27T03:06:42;95690.91;;;4.41;100.00
65800;BME280;52544;48.116;11.660;2023-04-27T03:09:08;95698.75;;;4.41;100.00
65800;BME280;52544;48.116;11.660;2023-04-27T03:11:37;95688.94;;;4.44;100.00
65800;BME280;52544;48.116;11.660;2023-04-27T03:14:03;95685.09;;;4.50;100.00
65800;BME280;52544;48.116;11.660;2023-04-27T03:16:31;95683.41;;;4.49;100.00
65800;BME280;52544;48.116;11.660;2023-04-27T03:18:56;95687.00;;;4.48;100.00
65800;BME280;52544;48.116;11.660;2023-04-27T03:21:21;95683.72;;;4.59;100.00
65800;BME280;52544;48.116;11.660;2023-04-27T03:23:47;95697.47;;;4.48;100.00
65800;BME280;52544;48.116;11.660;2023-04-27T03:26:13;95690.72;;;4.44;100.00
65800;BME280;52544;48.116;11.660;2023-04-27T03:28:38;95701.75;;;4.35;100.00
65800;BME280;52544;48.116;11.660;2023-04-27T03:31:05;95699.53;;;4.43;100.00
65800;BME280;52544;48.116;11.660;2023-04-27T03:33:31;95699.31;;;4.46;100.00
65800;BME280;52544;48.116;11.660;2023-04-27T03:35:57;95695.41;;;4.53;100.00
65800;BME280;52544;48.116;11.660;2023-04-27T03:38:24;95701.69;;;4.50;100.00
65800;BME280;52544;48.116;11.660;2023-04-27T03:40:50;95700.81;;;4.50;100.00
65800;BME280;52544;48.116;11.660;2023-04-27T03:43:16;95703.22;;;4.55;100.00
65800;BME280;52544;48.116;11.660;2023-04-27T03:45:41;95706.72;;;4.54;100.00
65800;BME280;52544;48.116;11.660;2023-04-27T03:48:06;95700.31;;;4.59;100.00
65800;BME280;52544;48.116;11.660;2023-04-27T03:50:32;95704.44;;;4.63;100.00
65800;BME280;52544;48.116;11.660;2023-04-27T03:52:57;95708.72;;;4.64;100.00
65800;BME280;52544;48.116;11.660;2023-04-27T03:55:23;95705.00;;;4.68;100.00
65800;BME280;52544;48.116;11.660;2023-04-27T03:57:50;95703.09;;;4.70;100.00
65800;BME280;52544;48.116;11.660;2023-04-27T04:00:16;95709.19;;;4.71;100.00
65800;BME280;52544;48.116;11.660;2023-04-27T04:02:42;95708.00;;;4.76;100.00
65800;BME280;52544;48.116;11.660;2023-04-27T04:05:08;95709.28;;;4.84;100.00
65800;BME280;52544;48.116;11.660;2023-04-27T04:07:33;95709.00;;;4.74;100.00
65800;BME280;52544;48.116;11.660;2023-04-27T04:09:59;95725.69;;;4.73;100.00
65800;BME280;52544;48.116;11.660;2023-04-27T04:12:25;95724.91;;;4.71;100.00
65800;BME280;52544;48.116;11.660;2023-04-27T04:14:50;95733.56;;;4.73;100.00
65800;BME280;52544;48.116;11.660;2023-04-27T04:17:15;95734.50;;;4.72;100.00
65800;BME280;52544;48.116;11.660;2023-04-27T04:19:41;95733.16;;;4.79;100.00
65800;BME280;52544;48.116;11.660;2023-04-27T04:22:06;95733.66;;;4.86;100.00
65800;BME280;52544;48.116;11.660;2023-04-27T04:24:32;95741.53;;;5.00;100.00
65800;BME280;52544;48.116;11.660;2023-04-27T04:26:57;95741.81;;;4.95;100.00
65800;BME280;52544;48.116;11.660;2023-04-27T04:29:23;95747.81;;;4.97;100.00
65800;BME280;52544;48.116;11.660;2023-04-27T04:31:50;95747.81;;;4.97;100.00
65800;BME280;52544;48.116;11.660;2023-04-27T04:34:15;95748.66;;;4.98;100.00
65800;BME280;52544;48.116;11.660;2023-04-27T04:36:40;95752.19;;;4.97;100.00
65800;BME280;52544;48.116;11.660;2023-04-27T04:39:06;95761.66;;;4.99;100.00
65800;BME280;52544;48.116;11.660;2023-04-27T04:41:31;95756.13;;;5.04;100.00
65800;BME280;52544;48.116;11.660;2023-04-27T04:43:57;95761.75;;;5.12;100.00
65800;BME280;52544;48.116;11.660;2023-04-27T04:46:23;95764.75;;;5.20;100.00
65800;BME280;52544;48.116;11.660;2023-04-27T04:48:49;95758.94;;;5.30;100.00
65800;BME280;52544;48.116;11.660;2023-04-27T04:51:15;95765.69;;;5.34;100.00
65800;BME280;52544;48.116;11.660;2023-04-27T04:53:41;95759.88;;;5.43;100.00
65800;BME280;52544;48.116;11.660;2023-04-27T04:56:11;95749.00;;;5.49;100.00
65800;BME280;52544;48.116;11.660;2023-04-27T04:58:37;95759.22;;;5.54;100.00
65800;BME280;52544;48.116;11.660;2023-04-27T05:01:03;95760.78;;;5.56;100.00
65800;BME280;52544;48.116;11.660;2023-04-27T05:03:28;95765.00;;;5.59;100.00
65800;BME280;52544;48.116;11.660;2023-04-27T05:05:54;95765.56;;;5.64;100.00
65800;BME280;52544;48.116;11.660;2023-04-27T05:08:19;95770.72;;;5.65;100.00
65800;BME280;52544;48.116;11.660;2023-04-27T05:10:51;95765.09;;;5.71;100.00
65800;BME280;52544;48.116;11.660;2023-04-27T05:13:17;95766.69;;;5.74;100.00
65800;BME280;52544;48.116;11.660;2023-04-27T05:15:42;95769.31;;;5.74;100.00
65800;BME280;52544;48.116;11.660;2023-04-27T05:18:08;95771.66;;;5.79;100.00
65800;BME280;52544;48.116;11.660;2023-04-27T05:20:34;95769.75;;;5.81;100.00
65800;BME280;52544;48.116;11.660;2023-04-27T05:23:00;95777.25;;;5.87;100.00
65800;BME280;52544;48.116;11.660;2023-04-27T05:25:25;95771.06;;;5.88;100.00
65800;BME280;52544;48.116;11.660;2023-04-27T05:27:51;95771.88;;;5.88;100.00
65800;BME280;52544;48.116;11.660;2023-04-27T05:30:16;95774.41;;;5.90;100.00
65800;BME280;52544;48.116;11.660;2023-04-27T05:32:42;95776.50;;;5.99;100.00
65800;BME280;52544;48.116;11.660;2023-04-27T05:35:07;95774.72;;;5.99;100.00
65800;BME280;52544;48.116;11.660;2023-04-27T05:37:33;95765.69;;;6.04;100.00
65800;BME280;52544;48.116;11.660;2023-04-27T05:39:58;95758.16;;;6.12;100.00
65800;BME280;52544;48.116;11.660;2023-04-27T05:42:23;95770.06;;;6.17;100.00
65800;BME280;52544;48.116;11.660;2023-04-27T05:44:49;95774.16;;;6.21;100.00
65800;BME280;52544;48.116;11.660;2023-04-27T05:47:14;95773.75;;;6.28;100.00
65800;BME280;52544;48.116;11.660;2023-04-27T05:49:40;95779.28;;;6.37;100.00
65800;BME280;52544;48.116;11.660;2023-04-27T05:52:05;95782.44;;;6.42;100.00
65800;BME280;52544;48.116;11.660;2023-04-27T05:54:31;95789.59;;;6.53;100.00
65800;BME280;52544;48.116;11.660;2023-04-27T05:56:56;95784.16;;;6.56;100.00
65800;BME280;52544;48.116;11.660;2023-04-27T05:59:22;95791.41;;;6.65;100.00
65800;BME280;52544;48.116;11.660;2023-04-27T06:01:47;95779.75;;;6.69;100.00
65800;BME280;52544;48.116;11.660;2023-04-27T06:04:13;95779.13;;;6.79;100.00
65800;BME280;52544;48.116;11.660;2023-04-27T06:06:38;95777.91;;;6.84;100.00
65800;BME280;52544;48.116;11.660;2023-04-27T06:09:03;95781.88;;;6.90;100.00
65800;BME280;52544;48.116;11.660;2023-04-27T06:11:29;95776.19;;;6.96;100.00
65800;BME280;52544;48.116;11.660;2023-04-27T06:13:54;95778.75;;;6.97;100.00
65800;BME280;52544;48.116;11.660;2023-04-27T06:16:20;95781.69;;;7.06;100.00
65800;BME280;52544;48.116;11.660;2023-04-27T06:18:45;95784.09;;;7.09;100.00
65800;BME280;52544;48.116;11.660;2023-04-27T06:21:11;95776.63;;;7.15;100.00
65800;BME280;52544;48.116;11.660;2023-04-27T06:23:36;95779.28;;;7.15;100.00
65800;BME280;52544;48.116;11.660;2023-04-27T06:26:02;95788.22;;;7.25;100.00
65800;BME280;52544;48.116;11.660;2023-04-27T06:28:28;95794.53;;;7.36;100.00
65800;BME280;52544;48.116;11.660;2023-04-27T06:30:53;95793.91;;;7.45;100.00
65800;BME280;52544;48.116;11.660;2023-04-27T06:33:19;95794.84;;;7.57;100.00
65800;BME280;52544;48.116;11.660;2023-04-27T06:35:44;95794.94;;;7.55;100.00
65800;BME280;52544;48.116;11.660;2023-04-27T06:38:10;95792.81;;;7.60;100.00
65800;BME280;52544;48.116;11.660;2023-04-27T06:40:35;95801.00;;;7.68;100.00
65800;BME280;52544;48.116;11.660;2023-04-27T06:43:01;95787.94;;;7.80;100.00
65800;BME280;52544;48.116;11.660;2023-04-27T06:45:27;95791.59;;;7.90;100.00
65800;BME280;52544;48.116;11.660;2023-04-27T06:47:52;95794.63;;;7.96;100.00
65800;BME280;52544;48.116;11.660;2023-04-27T06:50:18;95792.50;;;8.01;100.00
65800;BME280;52544;48.116;11.660;2023-04-27T06:52:43;95799.88;;;8.09;100.00
65800;BME280;52544;48.116;11.660;2023-04-27T06:55:08;95793.53;;;8.12;98.51
65800;BME280;52544;48.116;11.660;2023-04-27T06:57:34;95797.53;;;8.17;98.47
65800;BME280;52544;48.116;11.660;2023-04-27T07:00:00;95796.34;;;8.21;97.99
65800;BME280;52544;48.116;11.660;2023-04-27T07:02:26;95792.31;;;8.29;97.83
65800;BME280;52544;48.116;11.660;2023-04-27T07:04:51;95792.81;;;8.34;96.54
65800;BME280;52544;48.116;11.660;2023-04-27T07:07:16;95794.31;;;8.38;94.95
65800;BME280;52544;48.116;11.660;2023-04-27T07:09:42;95788.13;;;8.50;95.18
65800;BME280;52544;48.116;11.660;2023-04-27T07:12:08;95793.56;;;8.60;94.43
65800;BME280;52544;48.116;11.660;2023-04-27T07:14:33;95804.06;;;8.72;94.43
65800;BME280;52544;48.116;11.660;2023-04-27T07:16:59;95798.09;;;8.82;94.83
65800;BME280;52544;48.116;11.660;2023-04-27T07:19:24;95789.19;;;8.83;92.49
65800;BME280;52544;48.116;11.660;2023-04-27T07:21:49;95791.28;;;8.90;92.50
65800;BME280;52544;48.116;11.660;2023-04-27T07:24:15;95800.03;;;8.91;91.95
65800;BME280;52544;48.116;11.660;2023-04-27T07:26:41;95793.56;;;8.95;92.76
65800;BME280;52544;48.116;11.660;2023-04-27T07:29:06;95795.38;;;8.94;91.47
65800;BME280;52544;48.116;11.660;2023-04-27T07:31:33;95797.66;;;8.99;92.99
65800;BME280;52544;48.116;11.660;2023-04-27T07:33:59;95796.00;;;9.09;91.33
65800;BME280;52544;48.116;11.660;2023-04-27T07:36:25;95788.00;;;9.22;89.67
65800;BME280;52544;48.116;11.660;2023-04-27T07:38:51;95802.75;;;9.24;90.16
65800;BME280;52544;48.116;11.660;2023-04-27T07:41:17;95798.31;;;9.25;89.73
65800;BME280;52544;48.116;11.660;2023-04-27T07:43:44;95794.38;;;9.31;90.13
65800;BME280;52544;48.116;11.660;2023-04-27T07:46:10;95792.44;;;9.33;88.47
65800;BME280;52544;48.116;11.660;2023-04-27T07:48:36;95790.28;;;9.38;87.62
65800;BME280;52544;48.116;11.660;2023-04-27T07:51:01;95798.25;;;9.60;89.46
65800;BME280;52544;48.116;11.660;2023-04-27T07:53:27;95794.41;;;9.64;87.29
65800;BME280;52544;48.116;11.660;2023-04-27T07:55:52;95801.69;;;9.72;85.81
65800;BME280;52544;48.116;11.660;2023-04-27T07:58:18;95796.78;;;9.79;84.12
65800;BME280;52544;48.116;11.660;2023-04-27T08:00:44;95796.53;;;9.70;83.83
65800;BME280;52544;48.116;11.660;2023-04-27T08:03:10;95804.72;;;9.79;84.77
65800;BME280;52544;48.116;11.660;2023-04-27T08:05:35;95804.72;;;9.90;85.64
65800;BME280;52544;48.116;11.660;2023-04-27T08:08:01;95811.66;;;10.02;86.44
65800;BME280;52544;48.116;11.660;2023-04-27T08:10:26;95809.50;;;10.07;84.03
65800;BME280;52544;48.116;11.660;2023-04-27T08:12:52;95803.72;;;10.13;82.27
65800;BME280;52544;48.116;11.660;2023-04-27T08:15:17;95802.03;;;10.12;81.43
65800;BME280;52544;48.116;11.660;2023-04-27T08:17:43;95809.25;;;10.10;81.54
65800;BME280;52544;48.116;11.660;2023-04-27T08:20:09;95807.22;;;10.25;80.64
65800;BME280;52544;48.116;11.660;2023-04-27T08:22:41;95812.84;;;10.32;78.77
65800;BME280;52544;48.116;11.660;2023-04-27T08:25:07;95813.31;;;10.37;79.11
65800;BME280;52544;48.116;11.660;2023-04-27T08:27:36;95818.56;;;10.48;77.32
65800;BME280;52544;48.116;11.660;2023-04-27T08:30:02;95812.78;;;10.54;78.12
65800;BME280;52544;48.116;11.660;2023-04-27T08:32:27;95807.00;;;10.60;75.12
65800;BME280;52544;48.116;11.660;2023-04-27T08:34:53;95811.28;;;10.72;73.37
65800;BME280;52544;48.116;11.660;2023-04-27T08:37:18;95814.38;;;10.77;74.24
65800;BME280;52544;48.116;11.660;2023-04-27T08:39:46;95815.31;;;10.88;73.79
65800;BME280;52544;48.116;11.660;2023-04-27T08:42:12;95810.91;;;10.98;73.23
65800;BME280;52544;48.116;11.660;2023-04-27T08:44:42;95815.19;;;11.10;73.59
65800;BME280;52544;48.116;11.660;2023-04-27T08:47:08;95802.84;;;11.20;72.99
65800;BME280;52544;48.116;11.660;2023-04-27T08:49:35;95807.56;;;11.38;76.76
65800;BME280;52544;48.116;11.660;2023-04-27T08:52:03;95815.63;;;11.57;73.62
65800;BME280;52544;48.116;11.660;2023-04-27T08:54:28;95807.50;;;11.80;69.65
65800;BME280;52544;48.116;11.660;2023-04-27T08:56:55;95805.25;;;11.75;66.15
65800;BME280;52544;48.116;11.660;2023-04-27T08:59:20;95809.53;;;11.87;65.00
65800;BME280;52544;48.116;11.660;2023-04-27T09:01:46;95812.50;;;11.94;66.43
65800;BME280;52544;48.116;11.660;2023-04-27T09:04:13;95797.53;;;11.93;65.08
65800;BME280;52544;48.116;11.660;2023-04-27T09:06:39;95804.19;;;12.18;62.95
65800;BME280;52544;48.116;11.660;2023-04-27T09:09:04;95801.94;;;12.13;63.03
65800;BME280;52544;48.116;11.660;2023-04-27T09:11:32;95797.38;;;12.25;64.74
65800;BME280;52544;48.116;11.660;2023-04-27T09:13:59;95793.06;;;12.34;65.67
65800;BME280;52544;48.116;11.660;2023-04-27T09:16:26;95790.97;;;12.57;63.15
65800;BME280;52544;48.116;11.660;2023-04-27T09:18:53;95785.56;;;12.58;61.62
65800;BME280;52544;48.116;11.660;2023-04-27T09:21:27;95785.41;;;12.69;64.64
65800;BME280;52544;48.116;11.660;2023-04-27T09:23:53;95790.47;;;12.92;61.95
65800;BME280;52544;48.116;11.660;2023-04-27T09:26:23;95794.34;;;13.07;58.76
65800;BME280;52544;48.116;11.660;2023-04-27T09:28:51;95793.34;;;13.08;60.22
65800;BME280;52544;48.116;11.660;2023-04-27T09:31:17;95787.94;;;13.00;58.94
65800;BME280;52544;48.116;11.660;2023-04-27T09:33:44;95781.75;;;13.29;60.76
65800;BME280;52544;48.116;11.660;2023-04-27T09:36:10;95780.31;;;13.54;57.67
65800;BME280;52544;48.116;11.660;2023-04-27T09:38:35;95782.41;;;13.50;53.31
65800;BME280;52544;48.116;11.660;2023-04-27T09:41:01;95772.59;;;13.50;54.06
65800;BME280;52544;48.116;11.660;2023-04-27T09:43:28;95769.94;;;13.60;55.03
65800;BME280;52544;48.116;11.660;2023-04-27T09:45:55;95769.94;;;13.60;53.53
65800;BME280;52544;48.116;11.660;2023-04-27T09:48:22;95769.03;;;13.79;53.24
65800;BME280;52544;48.116;11.660;2023-04-27T09:50:49;95768.13;;;13.98;52.91
65800;BME280;52544;48.116;11.660;2023-04-27T09:53:21;95770.47;;;14.01;49.77
65800;BME280;52544;48.116;11.660;2023-04-27T10:03:47;95754.78;;;14.25;49.96
65800;BME280;52544;48.116;11.660;2023-04-27T10:08:56;95747.28;;;14.39;49.81
65800;BME280;52544;48.116;11.660;2023-04-27T10:11:41;95751.59;;;14.49;52.86
65800;BME280;52544;48.116;11.660;2023-04-27T10:14:10;95743.31;;;14.70;52.49
65800;BME280;52544;48.116;11.660;2023-04-27T10:16:57;95734.06;;;15.00;49.53
65800;BME280;52544;48.116;11.660;2023-04-27T10:19:23;95732.19;;;15.19;47.82
65800;BME280;52544;48.116;11.660;2023-04-27T10:21:54;95728.94;;;15.25;49.61
65800;BME280;52544;48.116;11.660;2023-04-27T10:24:33;95729.81;;;15.34;48.37
65800;BME280;52544;48.116;11.660;2023-04-27T10:27:03;95725.22;;;15.44;45.60
65800;BME280;52544;48.116;11.660;2023-04-27T10:29:37;95726.63;;;15.56;45.14
65800;BME280;52544;48.116;11.660;2023-04-27T10:32:08;95722.41;;;15.54;47.29
65800;BME280;52544;48.116;11.660;2023-04-27T10:34:34;95728.41;;;15.73;48.24
65800;BME280;52544;48.116;11.660;2023-04-27T10:37:07;95729.06;;;15.75;45.42
65800;BME280;52544;48.116;11.660;2023-04-27T10:39:35;95722.28;;;15.55;47.11
65800;BME280;52544;48.116;11.660;2023-04-27T10:42:01;95725.91;;;15.54;47.48
65800;BME280;52544;48.116;11.660;2023-04-27T10:44:29;95725.59;;;15.83;48.43
65800;BME280;52544;48.116;11.660;2023-04-27T10:46:56;95724.59;;;16.18;48.75
65800;BME280;52544;48.116;11.660;2023-04-27T10:49:26;95722.63;;;16.37;45.52
65800;BME280;52544;48.116;11.660;2023-04-27T10:51:53;95721.47;;;16.31;46.69
65800;BME280;52544;48.116;11.660;2023-04-27T10:54:25;95720.31;;;16.50;44.72
65800;BME280;52544;48.116;11.660;2023-04-27T10:56:51;95722.22;;;16.07;44.04
65800;BME280;52544;48.116;11.660;2023-04-27T10:59:16;95734.41;;;15.49;44.87
65800;BME280;52544;48.116;11.660;2023-04-27T11:01:47;95731.06;;;15.21;47.25
65800;BME280;52544;48.116;11.660;2023-04-27T11:04:13;95725.72;;;14.95;47.43
65800;BME280;52544;48.116;11.660;2023-04-27T11:06:43;95730.53;;;14.74;46.43
65800;BME280;52544;48.116;11.660;2023-04-27T11:09:10;95721.22;;;14.78;48.29
65800;BME280;52544;48.116;11.660;2023-04-27T11:11:35;95724.00;;;14.94;47.41
65800;BME280;52544;48.116;11.660;2023-04-27T11:14:01;95718.13;;;14.83;47.37
65800;BME280;52544;48.116;11.660;2023-04-27T11:16:28;95716.34;;;14.91;47.63
65800;BME280;52544;48.116;11.660;2023-04-27T11:18:53;95724.66;;;14.70;47.74
65800;BME280;52544;48.116;11.660;2023-04-27T11:21:19;95734.03;;;14.74;47.42
65800;BME280;52544;48.116;11.660;2023-04-27T11:23:46;95721.66;;;14.73;47.84
65800;BME280;52544;48.116;11.660;2023-04-27T11:26:14;95731.72;;;14.80;48.42
65800;BME280;52544;48.116;11.660;2023-04-27T11:28:41;95730.19;;;14.77;47.29
65800;BME280;52544;48.116;11.660;2023-04-27T11:31:06;95730.28;;;14.49;46.75
65800;BME280;52544;48.116;11.660;2023-04-27T11:33:32;95733.88;;;14.31;47.73
65800;BME280;52544;48.116;11.660;2023-04-27T11:35:58;95723.41;;;14.47;49.59
65800;BME280;52544;48.116;11.660;2023-04-27T11:38:25;95728.28;;;14.69;50.78
65800;BME280;52544;48.116;11.660;2023-04-27T11:41:04;95734.63;;;14.68;48.14
65800;BME280;52544;48.116;11.660;2023-04-27T11:43:30;95739.72;;;14.62;48.13
65800;BME280;52544;48.116;11.660;2023-04-27T11:45:56;95740.19;;;14.57;48.13
65800;BME280;52544;48.116;11.660;2023-04-27T11:48:23;95737.34;;;14.41;48.58
65800;BME280;52544;48.116;11.660;2023-04-27T11:50:49;95741.81;;;14.40;48.04
65800;BME280;52544;48.116;11.660;2023-04-27T11:53:15;95734.50;;;14.42;47.39
65800;BME280;52544;48.116;11.660;2023-04-27T11:55:41;95743.38;;;14.61;48.55
65800;BME280;52544;48.116;11.660;2023-04-27T11:58:14;95736.81;;;14.73;49.41
65800;BME280;52544;48.116;11.660;2023-04-27T12:00:39;95741.19;;;14.74;48.20
65800;BME280;52544;48.116;11.660;2023-04-27T12:03:05;95740.41;;;14.82;47.36
65800;BME280;52544;48.116;11.660;2023-04-27T12:05:31;95742.00;;;14.92;47.20
65800;BME280;52544;48.116;11.660;2023-04-27T12:07:57;95744.44;;;14.86;47.30
65800;BME280;52544;48.116;11.660;2023-04-27T12:10:23;95743.84;;;14.74;47.11
65800;BME280;52544;48.116;11.660;2023-04-27T12:12:49;95738.94;;;14.69;47.49
65800;BME280;52544;48.116;11.660;2023-04-27T12:15:14;95738.81;;;14.53;48.46
65800;BME280;52544;48.116;11.660;2023-04-27T12:17:40;95736.16;;;14.43;49.87
65800;BME280;52544;48.116;11.660;2023-04-27T12:20:06;95737.13;;;14.52;48.52
65800;BME280;52544;48.116;11.660;2023-04-27T12:22:32;95737.53;;;14.47;48.78
65800;BME280;52544;48.116;11.660;2023-04-27T12:24:58;95740.94;;;14.40;49.21
65800;BME280;52544;48.116;11.660;2023-04-27T12:27:23;95742.19;;;14.28;48.21
65800;BME280;52544;48.116;11.660;2023-04-27T12:29:48;95744.84;;;14.28;49.25
65800;BME280;52544;48.116;11.660;2023-04-27T12:32:14;95738.38;;;14.48;49.18
65800;BME280;52544;48.116;11.660;2023-04-27T12:34:40;95736.63;;;14.66;49.40
65800;BME280;52544;48.116;11.660;2023-04-27T12:37:07;95734.97;;;15.09;51.14
65800;BME280;52544;48.116;11.660;2023-04-27T12:39:32;95730.34;;;15.63;47.67
65800;BME280;52544;48.116;11.660;2023-04-27T12:41:57;95731.38;;;15.70;46.76
65800;BME280;52544;48.116;11.660;2023-04-27T12:44:23;95730.41;;;15.80;45.45
65800;BME280;52544;48.116;11.660;2023-04-27T12:46:48;95734.81;;;15.63;46.50
65800;BME280;52544;48.116;11.660;2023-04-27T12:49:15;95728.94;;;15.51;46.37
65800;BME280;52544;48.116;11.660;2023-04-27T12:51:40;95723.41;;;15.53;46.87
65800;BME280;52544;48.116;11.660;2023-04-27T12:54:07;95728.31;;;15.91;45.76
65800;BME280;52544;48.116;11.660;2023-04-27T12:56:33;95725.22;;;16.12;46.24